sensor_id;sensor_type;location;lat;lon;timestamp;P1;durP1;ratioP1;P2;durP2;ratioP2
16113;SDS011;8161;-33.910;151.156;2023-06-24T00:01:14;2.28;;;0.60;;
16113;SDS011;8161;-33.910;151.156;2023-06-24T00:03:42;1.17;;;0.50;;
16113;SDS011;8161;-33.910;151.156;2023-06-24T00:06:12;2.13;;;0.60;;
16113;SDS011;8161;-33.910;151.156;2023-06-24T00:08:46;0.95;;;0.57;;
16113;SDS011;8161;-33.910;151.156;2023-06-24T00:11:15;2.10;;;0.60;;
16113;SDS011;8161;-33.910;151.156;2023-06-24T00:13:46;4.30;;;0.80;;
16113;SDS011;8161;-33.910;151.156;2023-06-24T00:16:13;2.45;;;0.50;;
16113;SDS011;8161;-33.910;151.156;2023-06-24T00:18:40;0.80;;;0.40;;
16113;SDS011;8161;-33.910;151.156;2023-06-24T00:21:08;1.50;;;0.50;;
16113;SDS011;8161;-33.910;151.156;2023-06-24T00:23:35;1.05;;;0.40;;
16113;SDS011;8161;-33.910;151.156;2023-06-24T00:26:02;1.92;;;0.60;;
16113;SDS011;8161;-33.910;151.156;2023-06-24T00:28:30;1.23;;;0.40;;
16113;SDS011;8161;-33.910;151.156;2023-06-24T00:31:00;3.00;;;0.45;;
16113;SDS011;8161;-33.910;151.156;2023-06-24T00:33:28;1.20;;;0.50;;
16113;SDS011;8161;-33.910;151.156;2023-06-24T00:35:58;2.15;;;0.52;;
16113;SDS011;8161;-33.910;151.156;2023-06-24T00:38:25;1.80;;;0.50;;
16113;SDS011;8161;-33.910;151.156;2023-06-24T00:40:54;2.03;;;0.60;;
16113;SDS011;8161;-33.910;151.156;2023-06-24T00:43:21;2.33;;;0.70;;
16113;SDS011;8161;-33.910;151.156;2023-06-24T00:45:52;2.85;;;0.50;;
16113;SDS011;8161;-33.910;151.156;2023-06-24T00:48:28;2.27;;;0.50;;
16113;SDS011;8161;-33.910;151.156;2023-06-24T00:50:57;0.70;;;0.50;;
16113;SDS011;8161;-33.910;151.156;2023-06-24T00:53:27;1.80;;;0.50;;
16113;SDS011;8161;-33.910;151.156;2023-06-24T00:55:55;1.90;;;0.50;;
16113;SDS011;8161;-33.910;151.156;2023-06-24T00:58:28;1.60;;;0.60;;
16113;SDS011;8161;-33.910;151.156;2023-06-24T01:00:57;1.25;;;0.60;;
16113;SDS011;8161;-33.910;151.156;2023-06-24T01:03:25;2.40;;;0.60;;
16113;SDS011;8161;-33.910;151.156;2023-06-24T01:05:56;3.05;;;0.45;;
16113;SDS011;8161;-33.910;151.156;2023-06-24T01:08:24;0.75;;;0.50;;
16113;SDS011;8161;-33.910;151.156;2023-06-24T01:10:52;1.25;;;0.40;;
16113;SDS011;8161;-33.910;151.156;2023-06-24T01:13:19;1.67;;;0.60;;
16113;SDS011;8161;-33.910;151.156;2023-06-24T01:15:46;1.42;;;0.50;;
16113;SDS011;8161;-33.910;151.156;2023-06-24T01:18:57;1.10;;;0.43;;
16113;SDS011;8161;-33.910;151.156;2023-06-24T01:24:06;1.63;;;0.52;;
16113;SDS011;8161;-33.910;151.156;2023-06-24T01:27:10;1.37;;;0.50;;
16113;SDS011;8161;-33.910;151.156;2023-06-24T01:32:34;8.90;;;4.80;;
16113;SDS011;8161;-33.910;151.156;2023-06-24T01:35:16;5.25;;;2.42;;
16113;SDS011;8161;-33.910;151.156;2023-06-24T01:37:50;5.38;;;1.55;;
16113;SDS011;8161;-33.910;151.156;2023-06-24T01:40:26;2.37;;;1.03;;
16113;SDS011;8161;-33.910;151.156;2023-06-24T01:42:59;3.13;;;0.75;;
16113;SDS011;8161;-33.910;151.156;2023-06-24T01:45:32;0.90;;;0.55;;
16113;SDS011;8161;-33.910;151.156;2023-06-24T01:48:13;2.60;;;0.50;;
16113;SDS011;8161;-33.910;151.156;2023-06-24T01:50:45;1.50;;;0.60;;
16113;SDS011;8161;-33.910;151.156;2023-06-24T01:53:31;1.10;;;0.60;;
16113;SDS011;8161;-33.910;151.156;2023-06-24T01:56:01;1.50;;;0.70;;
16113;SDS011;8161;-33.910;151.156;2023-06-24T01:58:30;1.70;;;0.60;;
16113;SDS011;8161;-33.910;151.156;2023-06-24T02:01:01;0.77;;;0.32;;
16113;SDS011;8161;-33.910;151.156;2023-06-24T02:03:32;1.37;;;0.50;;
16113;SDS011;8161;-33.910;151.156;2023-06-24T02:06:00;1.05;;;0.40;;
16113;SDS011;8161;-33.910;151.156;2023-06-24T02:08:31;4.47;;;0.40;;
16113;SDS011;8161;-33.910;151.156;2023-06-24T02:11:00;1.80;;;0.33;;
16113;SDS011;8161;-33.910;151.156;2023-06-24T02:13:30;1.90;;;0.63;;
16113;SDS011;8161;-33.910;151.156;2023-06-24T02:16:01;1.40;;;0.40;;
16113;SDS011;8161;-33.910;151.156;2023-06-24T02:18:33;1.85;;;0.50;;
16113;SDS011;8161;-33.910;151.156;2023-06-24T02:21:02;1.60;;;0.50;;
16113;SDS011;8161;-33.910;151.156;2023-06-24T02:23:30;2.40;;;0.60;;
16113;SDS011;8161;-33.910;151.156;2023-06-24T02:25:59;1.55;;;0.40;;
16113;SDS011;8161;-33.910;151.156;2023-06-24T02:28:27;1.60;;;0.40;;
16113;SDS011;8161;-33.910;151.156;2023-06-24T02:30:56;1.87;;;0.80;;
16113;SDS011;8161;-33.910;151.156;2023-06-24T02:33:24;9.07;;;4.13;;
16113;SDS011;8161;-33.910;151.156;2023-06-24T02:35:54;1.38;;;0.57;;
16113;SDS011;8161;-33.910;151.156;2023-06-24T02:38:24;2.10;;;1.00;;
16113;SDS011;8161;-33.910;151.156;2023-06-24T02:40:51;1.88;;;0.40;;
16113;SDS011;8161;-33.910;151.156;2023-06-24T02:43:19;1.85;;;0.60;;
16113;SDS011;8161;-33.910;151.156;2023-06-24T02:45:46;0.80;;;0.40;;
16113;SDS011;8161;-33.910;151.156;2023-06-24T02:48:15;1.77;;;0.50;;
16113;SDS011;8161;-33.910;151.156;2023-06-24T02:50:45;1.35;;;0.57;;
16113;SDS011;8161;-33.910;151.156;2023-06-24T02:53:14;1.20;;;0.50;;
16113;SDS011;8161;-33.910;151.156;2023-06-24T02:55:44;2.08;;;0.50;;
16113;SDS011;8161;-33.910;151.156;2023-06-24T02:58:12;1.00;;;0.40;;
16113;SDS011;8161;-33.910;151.156;2023-06-24T03:00:40;1.55;;;0.60;;
16113;SDS011;8161;-33.910;151.156;2023-06-24T03:03:08;1.30;;;0.50;;
16113;SDS011;8161;-33.910;151.156;2023-06-24T03:05:35;0.50;;;0.30;;
16113;SDS011;8161;-33.910;151.156;2023-06-24T03:08:04;1.23;;;0.60;;
16113;SDS011;8161;-33.910;151.156;2023-06-24T03:10:31;1.50;;;0.70;;
16113;SDS011;8161;-33.910;151.156;2023-06-24T03:12:58;1.55;;;0.45;;
16113;SDS011;8161;-33.910;151.156;2023-06-24T03:15:26;1.42;;;0.50;;
16113;SDS011;8161;-33.910;151.156;2023-06-24T03:17:53;1.70;;;0.40;;
16113;SDS011;8161;-33.910;151.156;2023-06-24T03:20:22;2.50;;;0.50;;
16113;SDS011;8161;-33.910;151.156;2023-06-24T03:22:49;1.52;;;0.50;;
16113;SDS011;8161;-33.910;151.156;2023-06-24T03:25:17;2.60;;;0.60;;
16113;SDS011;8161;-33.910;151.156;2023-06-24T03:27:45;1.48;;;0.40;;
16113;SDS011;8161;-33.910;151.156;2023-06-24T03:30:12;2.03;;;0.50;;
16113;SDS011;8161;-33.910;151.156;2023-06-24T03:32:42;3.30;;;0.60;;
16113;SDS011;8161;-33.910;151.156;2023-06-24T03:35:12;0.70;;;0.40;;
16113;SDS011;8161;-33.910;151.156;2023-06-24T03:37:39;1.92;;;0.50;;
16113;SDS011;8161;-33.910;151.156;2023-06-24T03:40:10;1.50;;;0.32;;
16113;SDS011;8161;-33.910;151.156;2023-06-24T03:42:38;1.20;;;0.40;;
16113;SDS011;8161;-33.910;151.156;2023-06-24T03:45:05;1.60;;;0.50;;
16113;SDS011;8161;-33.910;151.156;2023-06-24T03:47:32;1.10;;;0.45;;
16113;SDS011;8161;-33.910;151.156;2023-06-24T03:50:00;1.30;;;0.40;;
16113;SDS011;8161;-33.910;151.156;2023-06-24T03:52:27;4.72;;;0.68;;
16113;SDS011;8161;-33.910;151.156;2023-06-24T03:54:54;0.63;;;0.30;;
16113;SDS011;8161;-33.910;151.156;2023-06-24T03:57:21;1.10;;;0.38;;
16113;SDS011;8161;-33.910;151.156;2023-06-24T03:59:48;0.50;;;0.30;;
16113;SDS011;8161;-33.910;151.156;2023-06-24T04:02:16;2.17;;;0.50;;
16113;SDS011;8161;-33.910;151.156;2023-06-24T04:04:43;1.35;;;0.38;;
16113;SDS011;8161;-33.910;151.156;2023-06-24T04:07:10;1.35;;;0.47;;
16113;SDS011;8161;-33.910;151.156;2023-06-24T04:09:39;1.38;;;0.45;;
16113;SDS011;8161;-33.910;151.156;2023-06-24T04:12:06;0.70;;;0.40;;
16113;SDS011;8161;-33.910;151.156;2023-06-24T04:14:34;0.95;;;0.50;;
16113;SDS011;8161;-33.910;151.156;2023-06-24T04:17:01;1.25;;;0.40;;
16113;SDS011;8161;-33.910;151.156;2023-06-24T04:19:28;0.70;;;0.40;;
16113;SDS011;8161;-33.910;151.156;2023-06-24T04:21:56;1.17;;;0.50;;
16113;SDS011;8161;-33.910;151.156;2023-06-24T04:24:23;1.40;;;0.30;;
16113;SDS011;8161;-33.910;151.156;2023-06-24T04:26:50;0.75;;;0.40;;
16113;SDS011;8161;-33.910;151.156;2023-06-24T04:29:17;0.90;;;0.30;;
16113;SDS011;8161;-33.910;151.156;2023-06-24T04:31:45;1.60;;;0.40;;
16113;SDS011;8161;-33.910;151.156;2023-06-24T04:34:12;1.37;;;0.40;;
16113;SDS011;8161;-33.910;151.156;2023-06-24T04:36:39;0.90;;;0.40;;
16113;SDS011;8161;-33.910;151.156;2023-06-24T04:39:06;0.77;;;0.40;;
16113;SDS011;8161;-33.910;151.156;2023-06-24T04:41:33;0.73;;;0.40;;
16113;SDS011;8161;-33.910;151.156;2023-06-24T04:44:00;0.97;;;0.37;;
16113;SDS011;8161;-33.910;151.156;2023-06-24T04:46:28;1.77;;;0.60;;
16113;SDS011;8161;-33.910;151.156;2023-06-24T04:48:55;2.38;;;1.27;;
16113;SDS011;8161;-33.910;151.156;2023-06-24T04:51:22;1.77;;;0.75;;
16113;SDS011;8161;-33.910;151.156;2023-06-24T04:53:49;2.60;;;0.50;;
16113;SDS011;8161;-33.910;151.156;2023-06-24T04:56:16;1.42;;;0.50;;
16113;SDS011;8161;-33.910;151.156;2023-06-24T04:58:44;1.80;;;0.50;;
16113;SDS011;8161;-33.910;151.156;2023-06-24T05:01:11;1.40;;;0.50;;
16113;SDS011;8161;-33.910;151.156;2023-06-24T05:03:38;0.93;;;0.45;;
16113;SDS011;8161;-33.910;151.156;2023-06-24T05:06:05;2.43;;;0.40;;
16113;SDS011;8161;-33.910;151.156;2023-06-24T05:08:36;0.50;;;0.30;;
16113;SDS011;8161;-33.910;151.156;2023-06-24T05:11:04;0.85;;;0.30;;
16113;SDS011;8161;-33.910;151.156;2023-06-24T05:13:31;1.00;;;0.30;;
16113;SDS011;8161;-33.910;151.156;2023-06-24T05:15:59;1.50;;;0.50;;
16113;SDS011;8161;-33.910;151.156;2023-06-24T05:18:26;0.60;;;0.40;;
16113;SDS011;8161;-33.910;151.156;2023-06-24T05:20:53;1.08;;;0.50;;
16113;SDS011;8161;-33.910;151.156;2023-06-24T05:23:21;1.55;;;0.73;;
16113;SDS011;8161;-33.910;151.156;2023-06-24T05:25:48;1.17;;;0.45;;
16113;SDS011;8161;-33.910;151.156;2023-06-24T05:28:15;1.13;;;0.40;;
16113;SDS011;8161;-33.910;151.156;2023-06-24T05:30:44;0.57;;;0.30;;
16113;SDS011;8161;-33.910;151.156;2023-06-24T05:33:14;1.13;;;0.50;;
16113;SDS011;8161;-33.910;151.156;2023-06-24T05:35:43;0.70;;;0.32;;
16113;SDS011;8161;-33.910;151.156;2023-06-24T05:38:10;1.35;;;0.50;;
16113;SDS011;8161;-33.910;151.156;2023-06-24T05:40:37;0.52;;;0.32;;
16113;SDS011;8161;-33.910;151.156;2023-06-24T05:43:07;0.85;;;0.45;;
16113;SDS011;8161;-33.910;151.156;2023-06-24T05:45:35;0.95;;;0.40;;
16113;SDS011;8161;-33.910;151.156;2023-06-24T05:48:02;0.80;;;0.60;;
16113;SDS011;8161;-33.910;151.156;2023-06-24T05:50:29;0.73;;;0.52;;
16113;SDS011;8161;-33.910;151.156;2023-06-24T05:52:57;2.13;;;0.70;;
16113;SDS011;8161;-33.910;151.156;2023-06-24T05:55:24;1.33;;;0.50;;
16113;SDS011;8161;-33.910;151.156;2023-06-24T05:57:52;1.60;;;0.60;;
16113;SDS011;8161;-33.910;151.156;2023-06-24T06:00:19;1.10;;;0.50;;
16113;SDS011;8161;-33.910;151.156;2023-06-24T06:02:46;1.52;;;0.60;;
16113;SDS011;8161;-33.910;151.156;2023-06-24T06:05:13;0.77;;;0.50;;
16113;SDS011;8161;-33.910;151.156;2023-06-24T06:07:41;0.98;;;0.60;;
16113;SDS011;8161;-33.910;151.156;2023-06-24T06:10:09;1.15;;;0.52;;
16113;SDS011;8161;-33.910;151.156;2023-06-24T06:12:43;1.27;;;0.60;;
16113;SDS011;8161;-33.910;151.156;2023-06-24T06:15:10;1.48;;;0.60;;
16113;SDS011;8161;-33.910;151.156;2023-06-24T06:17:37;2.45;;;0.73;;
16113;SDS011;8161;-33.910;151.156;2023-06-24T06:20:05;0.80;;;0.57;;
16113;SDS011;8161;-33.910;151.156;2023-06-24T06:22:32;0.90;;;0.57;;
16113;SDS011;8161;-33.910;151.156;2023-06-24T06:25:04;1.55;;;0.60;;
16113;SDS011;8161;-33.910;151.156;2023-06-24T06:27:32;1.25;;;0.77;;
16113;SDS011;8161;-33.910;151.156;2023-06-24T06:29:59;4.68;;;0.70;;
16113;SDS011;8161;-33.910;151.156;2023-06-24T06:32:30;1.33;;;0.60;;
16113;SDS011;8161;-33.910;151.156;2023-06-24T06:34:57;1.27;;;0.70;;
16113;SDS011;8161;-33.910;151.156;2023-06-24T06:37:24;0.73;;;0.50;;
16113;SDS011;8161;-33.910;151.156;2023-06-24T06:39:51;1.57;;;0.80;;
16113;SDS011;8161;-33.910;151.156;2023-06-24T06:42:18;1.20;;;0.63;;
16113;SDS011;8161;-33.910;151.156;2023-06-24T06:44:46;1.50;;;0.85;;
16113;SDS011;8161;-33.910;151.156;2023-06-24T06:47:13;1.27;;;0.88;;
16113;SDS011;8161;-33.910;151.156;2023-06-24T06:49:40;1.23;;;0.80;;
16113;SDS011;8161;-33.910;151.156;2023-06-24T06:52:07;2.00;;;0.90;;
16113;SDS011;8161;-33.910;151.156;2023-06-24T06:54:35;1.98;;;1.00;;
16113;SDS011;8161;-33.910;151.156;2023-06-24T06:57:05;2.50;;;1.23;;
16113;SDS011;8161;-33.910;151.156;2023-06-24T06:59:32;2.80;;;1.35;;
16113;SDS011;8161;-33.910;151.156;2023-06-24T07:01:59;5.45;;;2.80;;
16113;SDS011;8161;-33.910;151.156;2023-06-24T07:04:26;4.78;;;2.90;;
16113;SDS011;8161;-33.910;151.156;2023-06-24T07:06:54;3.72;;;2.80;;
16113;SDS011;8161;-33.910;151.156;2023-06-24T07:09:21;5.60;;;2.90;;
16113;SDS011;8161;-33.910;151.156;2023-06-24T07:11:48;3.95;;;2.67;;
16113;SDS011;8161;-33.910;151.156;2023-06-24T07:14:15;3.65;;;2.42;;
16113;SDS011;8161;-33.910;151.156;2023-06-24T07:16:42;4.30;;;2.70;;
16113;SDS011;8161;-33.910;151.156;2023-06-24T07:19:12;4.83;;;2.80;;
16113;SDS011;8161;-33.910;151.156;2023-06-24T07:21:39;5.07;;;2.80;;
16113;SDS011;8161;-33.910;151.156;2023-06-24T07:24:07;6.87;;;3.10;;
16113;SDS011;8161;-33.910;151.156;2023-06-24T07:26:34;4.87;;;2.93;;
16113;SDS011;8161;-33.910;151.156;2023-06-24T07:29:01;8.40;;;4.20;;
16113;SDS011;8161;-33.910;151.156;2023-06-24T07:31:28;6.40;;;3.58;;
16113;SDS011;8161;-33.910;151.156;2023-06-24T07:33:56;7.43;;;4.53;;
16113;SDS011;8161;-33.910;151.156;2023-06-24T07:36:23;7.97;;;4.63;;
16113;SDS011;8161;-33.910;151.156;2023-06-24T07:38:50;10.10;;;4.55;;
16113;SDS011;8161;-33.910;151.156;2023-06-24T07:41:17;7.70;;;4.30;;
16113;SDS011;8161;-33.910;151.156;2023-06-24T07:43:45;7.03;;;4.25;;
16113;SDS011;8161;-33.910;151.156;2023-06-24T07:46:12;5.20;;;3.40;;
16113;SDS011;8161;-33.910;151.156;2023-06-24T07:48:39;5.40;;;3.17;;
16113;SDS011;8161;-33.910;151.156;2023-06-24T07:51:06;5.47;;;3.17;;
16113;SDS011;8161;-33.910;151.156;2023-06-24T07:53:34;5.28;;;2.78;;
16113;SDS011;8161;-33.910;151.156;2023-06-24T07:56:01;4.93;;;2.40;;
16113;SDS011;8161;-33.910;151.156;2023-06-24T07:58:29;4.10;;;2.50;;
16113;SDS011;8161;-33.910;151.156;2023-06-24T08:00:56;4.72;;;2.63;;
16113;SDS011;8161;-33.910;151.156;2023-06-24T08:03:23;5.45;;;2.67;;
16113;SDS011;8161;-33.910;151.156;2023-06-24T08:05:50;4.47;;;2.30;;
16113;SDS011;8161;-33.910;151.156;2023-06-24T08:08:18;5.47;;;2.08;;
16113;SDS011;8161;-33.910;151.156;2023-06-24T08:10:46;3.28;;;1.80;;
16113;SDS011;8161;-33.910;151.156;2023-06-24T08:13:13;2.97;;;1.60;;
16113;SDS011;8161;-33.910;151.156;2023-06-24T08:15:40;3.55;;;1.80;;
16113;SDS011;8161;-33.910;151.156;2023-06-24T08:18:08;3.40;;;1.80;;
16113;SDS011;8161;-33.910;151.156;2023-06-24T08:20:35;2.67;;;1.77;;
16113;SDS011;8161;-33.910;151.156;2023-06-24T08:23:02;3.03;;;1.50;;
16113;SDS011;8161;-33.910;151.156;2023-06-24T08:25:29;2.95;;;1.67;;
16113;SDS011;8161;-33.910;151.156;2023-06-24T08:27:57;2.55;;;1.80;;
16113;SDS011;8161;-33.910;151.156;2023-06-24T08:30:25;2.53;;;1.60;;
16113;SDS011;8161;-33.910;151.156;2023-06-24T08:32:52;3.95;;;1.80;;
16113;SDS011;8161;-33.910;151.156;2023-06-24T08:35:20;3.47;;;1.98;;
16113;SDS011;8161;-33.910;151.156;2023-06-24T08:37:47;2.95;;;2.20;;
16113;SDS011;8161;-33.910;151.156;2023-06-24T08:40:14;2.97;;;2.03;;
16113;SDS011;8161;-33.910;151.156;2023-06-24T08:42:42;3.80;;;2.28;;
16113;SDS011;8161;-33.910;151.156;2023-06-24T08:45:10;3.42;;;2.20;;
16113;SDS011;8161;-33.910;151.156;2023-06-24T08:47:37;4.07;;;2.60;;
16113;SDS011;8161;-33.910;151.156;2023-06-24T08:50:11;4.45;;;2.67;;
16113;SDS011;8161;-33.910;151.156;2023-06-24T08:52:50;5.07;;;2.90;;
16113;SDS011;8161;-33.910;151.156;2023-06-24T08:55:19;5.53;;;3.17;;
16113;SDS011;8161;-33.910;151.156;2023-06-24T08:57:48;3.90;;;2.65;;
16113;SDS011;8161;-33.910;151.156;2023-06-24T09:00:16;3.53;;;2.33;;
16113;SDS011;8161;-33.910;151.156;2023-06-24T09:02:44;3.53;;;2.40;;
16113;SDS011;8161;-33.910;151.156;2023-06-24T09:05:11;4.30;;;2.45;;
16113;SDS011;8161;-33.910;151.156;2023-06-24T09:07:39;3.97;;;2.38;;
16113;SDS011;8161;-33.910;151.156;2023-06-24T09:10:06;4.40;;;2.72;;
16113;SDS011;8161;-33.910;151.156;2023-06-24T09:12:33;4.90;;;2.72;;
16113;SDS011;8161;-33.910;151.156;2023-06-24T09:15:01;6.17;;;3.30;;
16113;SDS011;8161;-33.910;151.156;2023-06-24T09:17:30;5.88;;;3.55;;
16113;SDS011;8161;-33.910;151.156;2023-06-24T09:20:06;7.25;;;3.78;;
16113;SDS011;8161;-33.910;151.156;2023-06-24T09:22:38;7.03;;;3.80;;
16113;SDS011;8161;-33.910;151.156;2023-06-24T09:25:07;6.00;;;4.00;;
16113;SDS011;8161;-33.910;151.156;2023-06-24T09:27:35;6.00;;;3.57;;
16113;SDS011;8161;-33.910;151.156;2023-06-24T09:32:48;7.60;;;4.33;;
16113;SDS011;8161;-33.910;151.156;2023-06-24T09:35:20;5.93;;;3.90;;
16113;SDS011;8161;-33.910;151.156;2023-06-24T09:37:49;6.07;;;4.07;;
16113;SDS011;8161;-33.910;151.156;2023-06-24T09:40:17;5.68;;;4.22;;
16113;SDS011;8161;-33.910;151.156;2023-06-24T09:45:23;7.75;;;4.60;;
16113;SDS011;8161;-33.910;151.156;2023-06-24T09:47:52;8.10;;;4.88;;
16113;SDS011;8161;-33.910;151.156;2023-06-24T09:50:19;10.20;;;5.32;;
16113;SDS011;8161;-33.910;151.156;2023-06-24T09:52:47;7.77;;;5.10;;
16113;SDS011;8161;-33.910;151.156;2023-06-24T09:55:16;7.85;;;4.65;;
16113;SDS011;8161;-33.910;151.156;2023-06-24T09:57:45;7.22;;;4.43;;
16113;SDS011;8161;-33.910;151.156;2023-06-24T10:00:17;8.73;;;4.70;;
16113;SDS011;8161;-33.910;151.156;2023-06-24T10:02:46;9.02;;;4.78;;
16113;SDS011;8161;-33.910;151.156;2023-06-24T10:05:17;8.88;;;5.13;;
16113;SDS011;8161;-33.910;151.156;2023-06-24T10:07:45;7.57;;;4.60;;
16113;SDS011;8161;-33.910;151.156;2023-06-24T10:10:12;7.40;;;4.22;;
16113;SDS011;8161;-33.910;151.156;2023-06-24T10:12:40;6.45;;;4.00;;
16113;SDS011;8161;-33.910;151.156;2023-06-24T10:15:07;6.87;;;3.93;;
16113;SDS011;8161;-33.910;151.156;2023-06-24T10:17:35;7.80;;;4.13;;
16113;SDS011;8161;-33.910;151.156;2023-06-24T10:20:03;7.90;;;4.32;;
16113;SDS011;8161;-33.910;151.156;2023-06-24T10:22:34;8.05;;;3.85;;
16113;SDS011;8161;-33.910;151.156;2023-06-24T10:25:02;7.15;;;4.28;;
16113;SDS011;8161;-33.910;151.156;2023-06-24T10:27:42;6.13;;;4.30;;
16113;SDS011;8161;-33.910;151.156;2023-06-24T10:30:18;6.95;;;4.13;;
16113;SDS011;8161;-33.910;151.156;2023-06-24T10:32:50;6.93;;;4.13;;
16113;SDS011;8161;-33.910;151.156;2023-06-24T10:35:25;7.53;;;4.10;;
16113;SDS011;8161;-33.910;151.156;2023-06-24T10:37:56;6.30;;;4.18;;
16113;SDS011;8161;-33.910;151.156;2023-06-24T10:43:26;6.85;;;4.32;;
16113;SDS011;8161;-33.910;151.156;2023-06-24T10:45:55;7.65;;;4.53;;
16113;SDS011;8161;-33.910;151.156;2023-06-24T10:48:24;7.57;;;4.40;;
16113;SDS011;8161;-33.910;151.156;2023-06-24T10:50:51;7.82;;;4.20;;
16113;SDS011;8161;-33.910;151.156;2023-06-24T10:53:19;9.00;;;5.00;;
16113;SDS011;8161;-33.910;151.156;2023-06-24T10:55:47;7.15;;;4.30;;
16113;SDS011;8161;-33.910;151.156;2023-06-24T10:58:15;7.68;;;4.30;;
16113;SDS011;8161;-33.910;151.156;2023-06-24T11:00:42;6.40;;;4.10;;
16113;SDS011;8161;-33.910;151.156;2023-06-24T11:03:12;7.18;;;4.85;;
16113;SDS011;8161;-33.910;151.156;2023-06-24T11:05:41;9.82;;;6.18;;
16113;SDS011;8161;-33.910;151.156;2023-06-24T11:08:09;10.38;;;5.97;;
16113;SDS011;8161;-33.910;151.156;2023-06-24T11:10:43;12.38;;;5.90;;
16113;SDS011;8161;-33.910;151.156;2023-06-24T11:13:14;11.45;;;5.93;;
16113;SDS011;8161;-33.910;151.156;2023-06-24T11:15:46;10.00;;;6.28;;
16113;SDS011;8161;-33.910;151.156;2023-06-24T11:18:13;9.77;;;5.80;;
16113;SDS011;8161;-33.910;151.156;2023-06-24T11:20:40;11.57;;;6.57;;
16113;SDS011;8161;-33.910;151.156;2023-06-24T11:23:08;13.90;;;7.05;;
16113;SDS011;8161;-33.910;151.156;2023-06-24T11:25:42;11.65;;;6.38;;
16113;SDS011;8161;-33.910;151.156;2023-06-24T11:28:19;11.88;;;6.30;;
16113;SDS011;8161;-33.910;151.156;2023-06-24T11:30:46;13.25;;;7.28;;
16113;SDS011;8161;-33.910;151.156;2023-06-24T11:33:13;13.20;;;7.25;;
16113;SDS011;8161;-33.910;151.156;2023-06-24T11:35:53;13.75;;;7.80;;
16113;SDS011;8161;-33.910;151.156;2023-06-24T11:38:21;13.07;;;7.78;;
16113;SDS011;8161;-33.910;151.156;2023-06-24T11:40:48;13.68;;;8.30;;
16113;SDS011;8161;-33.910;151.156;2023-06-24T11:43:15;18.08;;;10.75;;
16113;SDS011;8161;-33.910;151.156;2023-06-24T11:45:43;16.52;;;9.73;;
16113;SDS011;8161;-33.910;151.156;2023-06-24T11:48:14;13.10;;;7.28;;
16113;SDS011;8161;-33.910;151.156;2023-06-24T11:50:41;12.93;;;7.03;;
16113;SDS011;8161;-33.910;151.156;2023-06-24T11:53:08;10.77;;;6.70;;
16113;SDS011;8161;-33.910;151.156;2023-06-24T11:55:35;12.30;;;6.85;;
16113;SDS011;8161;-33.910;151.156;2023-06-24T11:58:03;11.27;;;6.80;;
16113;SDS011;8161;-33.910;151.156;2023-06-24T12:00:31;13.07;;;7.10;;
16113;SDS011;8161;-33.910;151.156;2023-06-24T12:03:03;11.80;;;6.40;;
16113;SDS011;8161;-33.910;151.156;2023-06-24T12:05:31;9.85;;;6.57;;
16113;SDS011;8161;-33.910;151.156;2023-06-24T12:08:01;11.43;;;6.88;;
16113;SDS011;8161;-33.910;151.156;2023-06-24T12:10:35;10.88;;;5.90;;
16113;SDS011;8161;-33.910;151.156;2023-06-24T12:13:03;10.53;;;5.83;;
16113;SDS011;8161;-33.910;151.156;2023-06-24T12:15:34;10.27;;;6.22;;
16113;SDS011;8161;-33.910;151.156;2023-06-24T12:18:02;11.55;;;6.35;;
16113;SDS011;8161;-33.910;151.156;2023-06-24T12:20:30;10.00;;;6.63;;
16113;SDS011;8161;-33.910;151.156;2023-06-24T12:22:58;12.90;;;6.10;;
16113;SDS011;8161;-33.910;151.156;2023-06-24T12:25:25;9.80;;;5.85;;
16113;SDS011;8161;-33.910;151.156;2023-06-24T12:27:53;10.45;;;5.53;;
16113;SDS011;8161;-33.910;151.156;2023-06-24T12:30:20;12.57;;;6.47;;
16113;SDS011;8161;-33.910;151.156;2023-06-24T12:32:50;10.85;;;5.95;;
16113;SDS011;8161;-33.910;151.156;2023-06-24T12:35:18;11.02;;;5.78;;
16113;SDS011;8161;-33.910;151.156;2023-06-24T12:37:46;11.05;;;5.03;;
16113;SDS011;8161;-33.910;151.156;2023-06-24T12:40:14;8.35;;;5.07;;
16113;SDS011;8161;-33.910;151.156;2023-06-24T12:42:41;7.65;;;4.60;;
16113;SDS011;8161;-33.910;151.156;2023-06-24T12:45:08;8.30;;;4.22;;
16113;SDS011;8161;-33.910;151.156;2023-06-24T12:47:36;8.10;;;4.43;;
16113;SDS011;8161;-33.910;151.156;2023-06-24T12:50:03;7.07;;;3.80;;
16113;SDS011;8161;-33.910;151.156;2023-06-24T12:52:34;7.00;;;4.10;;
16113;SDS011;8161;-33.910;151.156;2023-06-24T12:55:02;7.20;;;3.95;;
16113;SDS011;8161;-33.910;151.156;2023-06-24T12:57:29;8.23;;;3.78;;
16113;SDS011;8161;-33.910;151.156;2023-06-24T12:59:57;6.80;;;3.95;;
16113;SDS011;8161;-33.910;151.156;2023-06-24T13:02:24;7.27;;;3.60;;
16113;SDS011;8161;-33.910;151.156;2023-06-24T13:04:51;7.10;;;3.57;;
16113;SDS011;8161;-33.910;151.156;2023-06-24T13:07:18;6.73;;;3.40;;
16113;SDS011;8161;-33.910;151.156;2023-06-24T13:09:46;5.20;;;3.23;;
16113;SDS011;8161;-33.910;151.156;2023-06-24T13:12:13;8.05;;;4.00;;
16113;SDS011;8161;-33.910;151.156;2023-06-24T13:14:40;6.17;;;3.20;;
16113;SDS011;8161;-33.910;151.156;2023-06-24T13:17:07;4.38;;;2.65;;
16113;SDS011;8161;-33.910;151.156;2023-06-24T13:19:34;4.88;;;2.72;;
16113;SDS011;8161;-33.910;151.156;2023-06-24T13:22:02;3.42;;;2.20;;
16113;SDS011;8161;-33.910;151.156;2023-06-24T13:24:29;3.25;;;1.95;;
16113;SDS011;8161;-33.910;151.156;2023-06-24T13:26:56;3.17;;;1.50;;
16113;SDS011;8161;-33.910;151.156;2023-06-24T13:29:26;2.10;;;1.48;;
16113;SDS011;8161;-33.910;151.156;2023-06-24T13:32:02;3.60;;;1.20;;
16113;SDS011;8161;-33.910;151.156;2023-06-24T13:34:30;3.20;;;1.20;;
16113;SDS011;8161;-33.910;151.156;2023-06-24T13:36:57;2.42;;;1.08;;
16113;SDS011;8161;-33.910;151.156;2023-06-24T13:39:24;2.05;;;1.27;;
16113;SDS011;8161;-33.910;151.156;2023-06-24T13:41:53;1.63;;;1.10;;
16113;SDS011;8161;-33.910;151.156;2023-06-24T13:44:22;1.77;;;1.10;;
16113;SDS011;8161;-33.910;151.156;2023-06-24T13:46:50;25.33;;;14.65;;
16113;SDS011;8161;-33.910;151.156;2023-06-24T13:49:19;16.33;;;9.68;;
16113;SDS011;8161;-33.910;151.156;2023-06-24T13:51:46;2.45;;;1.65;;
16113;SDS011;8161;-33.910;151.156;2023-06-24T13:54:16;1.92;;;1.17;;
16113;SDS011;8161;-33.910;151.156;2023-06-24T13:56:43;1.90;;;0.90;;
16113;SDS011;8161;-33.910;151.156;2023-06-24T13:59:11;2.20;;;1.20;;
16113;SDS011;8161;-33.910;151.156;2023-06-24T14:01:38;2.10;;;1.00;;
16113;SDS011;8161;-33.910;151.156;2023-06-24T14:04:05;2.47;;;1.00;;
16113;SDS011;8161;-33.910;151.156;2023-06-24T14:06:32;1.45;;;1.00;;
16113;SDS011;8161;-33.910;151.156;2023-06-24T14:09:00;3.50;;;1.38;;
16113;SDS011;8161;-33.910;151.156;2023-06-24T14:11:27;1.60;;;1.27;;
16113;SDS011;8161;-33.910;151.156;2023-06-24T14:13:54;3.20;;;1.40;;
16113;SDS011;8161;-33.910;151.156;2023-06-24T14:16:21;1.93;;;1.30;;
16113;SDS011;8161;-33.910;151.156;2023-06-24T14:18:49;2.00;;;1.38;;
16113;SDS011;8161;-33.910;151.156;2023-06-24T14:21:16;2.17;;;1.40;;
16113;SDS011;8161;-33.910;151.156;2023-06-24T14:23:43;2.60;;;1.45;;
16113;SDS011;8161;-33.910;151.156;2023-06-24T14:26:13;1.92;;;1.23;;
16113;SDS011;8161;-33.910;151.156;2023-06-24T14:28:43;2.50;;;1.25;;
16113;SDS011;8161;-33.910;151.156;2023-06-24T14:31:11;2.17;;;1.30;;
16113;SDS011;8161;-33.910;151.156;2023-06-24T14:33:38;1.65;;;1.10;;
16113;SDS011;8161;-33.910;151.156;2023-06-24T14:36:05;1.80;;;1.00;;
16113;SDS011;8161;-33.910;151.156;2023-06-24T14:38:32;1.30;;;0.90;;
16113;SDS011;8161;-33.910;151.156;2023-06-24T14:41:02;4.50;;;0.90;;
16113;SDS011;8161;-33.910;151.156;2023-06-24T14:43:30;1.40;;;0.70;;